This is the latest recevied weather packets stored in our database for station/object OK1FET-6. If no packets are shown the sender has not sent any weather packets the latest 10 day(s).
| Time | Temp. | Humidity | Pressure | Rain* | Wind** | Luminosity | Snow |
|---|---|---|---|---|---|---|---|
| 1788240589 | 15° C | 70% | 1019.7 hPa | 0 mm | - | - | - |
| 1788239991 | 14.44° C | 69% | 1019.6 hPa | 0 mm | - | - | - |
| 1788239393 | 14.44° C | 69% | 1019.5 hPa | 0 mm | - | - | - |
| 1788238795 | 14.44° C | 69% | 1019.5 hPa | 0 mm | - | - | - |
| 1788238196 | 15° C | 68% | 1019.3 hPa | 0 mm | - | - | - |
| 1788237598 | 15° C | 69% | 1019.2 hPa | 0 mm | - | - | - |
| 1788237000 | 15° C | 68% | 1019.1 hPa | 0 mm | - | - | - |
| 1788222047 | 16.67° C | 60% | 1018.1 hPa | 0 mm | - | - | - |
| 1788218458 | 16.11° C | 60% | 1017.8 hPa | 0 mm | - | - | - |
| 1788217860 | 16.67° C | 60% | 1017.8 hPa | 0 mm | - | - | - |
| 1788211878 | 17.78° C | 57% | 1016.9 hPa | 0 mm | - | - | - |
| 1788211280 | 17.22° C | 57% | 1016.9 hPa | 0 mm | - | - | - |
| 1788209486 | 17.78° C | 55% | 1016.5 hPa | 0 mm | - | - | - |
| 1788207689 | 17.78° C | 54% | 1016.3 hPa | 0 mm | - | - | - |
| 1788207091 | 18.33° C | 54% | 1016.2 hPa | 0 mm | - | - | - |
| 1788206493 | 18.33° C | 53% | 1016.1 hPa | 0 mm | - | - | - |
| 1788205895 | 18.33° C | 52% | 1016 hPa | 0 mm | - | - | - |
| 1788205297 | 18.33° C | 52% | 1016 hPa | 0 mm | - | - | - |
| 1788204698 | 18.89° C | 51% | 1016 hPa | 0 mm | - | - | - |
| 1788204099 | 18.89° C | 51% | 1015.9 hPa | 0 mm | - | - | - |
| 1788203501 | 19.44° C | 50% | 1015.8 hPa | 0 mm | - | - | - |
| 1788202903 | 19.44° C | 50% | 1015.6 hPa | 0 mm | - | - | - |
| 1788202305 | 20° C | 49% | 1015.6 hPa | 0 mm | - | - | - |
| 1788201108 | 20.56° C | 49% | 1015.4 hPa | 0 mm | - | - | - |
| 1788200510 | 21.11° C | 48% | 1015.3 hPa | 0 mm | - | - | - |
* Rain latest hour (hover to see other rain measurements)
** Current wind speed in m/s (hover to see current wind gust speed)